Time;durP1;ratioP1;P1;durP2;ratioP2;P2;SDS_P1;SDS_P2;PMS_P1;PMS_P2;Temp;Humidity;BMP_temperature;BMP_pressure;BME280_temperature;BME280_humidity;BME280_pressure;Samples;Min_cycle;Max_cycle;Signal;HPM_P1;HPM_P2
2023/06/17 00:01:59;;;;;;;14.88;8.93;;;;;;;12.33;86.06;101501.03;5053603;28;20068;-44
2023/06/17 00:04:24;;;;;;;12.90;8.80;;;;;;;12.22;86.39;101508.44;5053388;28;20484;-45
2023/06/17 00:06:49;;;;;;;11.68;8.48;;;;;;;12.30;85.48;101506.13;5052849;28;20025;-44
2023/06/17 00:09:15;;;;;;;17.38;9.57;;;;;;;12.25;86.04;101510.25;5053583;28;20096;-46
2023/06/17 00:11:40;;;;;;;13.90;9.60;;;;;;;12.25;86.23;101513.72;5053106;28;20021;-42
2023/06/17 00:14:05;;;;;;;16.85;9.05;;;;;;;12.35;86.43;101509.72;5052705;28;20082;-44
2023/06/17 00:16:32;;;;;;;16.95;9.70;;;;;;;12.15;87.24;101497.03;5053061;28;20025;-44
2023/06/17 00:18:58;;;;;;;16.23;10.10;;;;;;;12.02;88.23;101494.88;5053380;28;20495;-43
2023/06/17 00:21:23;;;;;;;16.63;10.95;;;;;;;11.92;88.72;101492.75;5052202;28;20049;-43
2023/06/17 00:23:49;;;;;;;15.25;11.32;;;;;;;11.97;88.34;101486.09;5053181;28;20033;-45
2023/06/17 00:26:15;;;;;;;15.98;11.00;;;;;;;11.91;88.48;101496.16;5053451;28;20029;-45
2023/06/17 00:28:40;;;;;;;16.13;11.15;;;;;;;11.82;88.77;101488.97;5052116;28;20024;-46
2023/06/17 00:31:05;;;;;;;17.75;10.95;;;;;;;11.81;88.22;101489.78;5053068;28;20431;-48
2023/06/17 00:33:31;;;;;;;17.63;10.93;;;;;;;11.81;88.62;101479.47;5052819;28;20025;-45
2023/06/17 00:35:56;;;;;;;16.83;11.48;;;;;;;11.71;89.16;101483.44;5052345;28;20497;-43
2023/06/17 00:38:21;;;;;;;12.85;10.90;;;;;;;11.64;89.85;101482.31;5052932;28;20021;-42
2023/06/17 00:40:46;;;;;;;17.42;12.00;;;;;;;11.64;90.41;101491.78;5052987;28;20029;-43
2023/06/17 00:43:12;;;;;;;18.33;12.00;;;;;;;11.52;90.51;101487.94;5052215;28;20064;-43
2023/06/17 00:45:39;;;;;;;19.33;11.38;;;;;;;11.46;91.19;101499.75;5052679;28;20443;-45
2023/06/17 00:48:09;;;;;;;20.40;11.95;;;;;;;11.36;92.46;101494.25;5052286;28;20043;-44
2023/06/17 00:50:36;;;;;;;21.00;13.38;;;;;;;11.38;93.64;101494.31;5052599;28;20070;-47
2023/06/17 00:53:02;;;;;;;23.08;13.75;;;;;;;11.35;93.78;101496.78;5052714;28;20032;-43
2023/06/17 00:55:28;;;;;;;21.42;13.45;;;;;;;11.32;94.27;101494.97;5051837;28;20108;-44
2023/06/17 00:57:54;;;;;;;19.55;13.25;;;;;;;11.28;94.29;101492.22;5052971;28;20376;-43
2023/06/17 01:00:19;;;;;;;19.25;14.18;;;;;;;11.25;95.07;101489.53;5052848;28;20063;-43
2023/06/17 01:02:46;;;;;;;23.58;14.57;;;;;;;11.22;95.96;101491.97;5051683;28;20369;-43
2023/06/17 01:05:14;;;;;;;21.95;14.35;;;;;;;11.28;95.33;101492.22;5052622;28;20032;-44
2023/06/17 01:08:12;;;;;;;19.58;13.88;;;;;;;11.27;95.49;101487.88;5052504;28;20017;-46
2023/06/17 01:10:50;;;;;;;21.55;13.90;;;;;;;11.31;96.10;101497.47;5051772;28;20028;-44
2023/06/17 01:13:17;;;;;;;20.13;13.57;;;;;;;11.30;96.07;101485.41;5052763;28;20072;-43
2023/06/17 01:15:43;;;;;;;21.23;14.70;;;;;;;11.29;96.29;101483.66;5052351;28;20029;-45
2023/06/17 01:18:09;;;;;;;23.58;14.50;;;;;;;11.25;95.88;101480.06;5051834;28;20017;-43
2023/06/17 01:20:35;;;;;;;20.55;14.43;;;;;;;11.23;95.91;101478.25;5052286;28;20037;-46
2023/06/17 01:23:03;;;;;;;21.05;14.45;;;;;;;11.22;96.15;101482.56;5052382;28;20021;-44
2023/06/17 01:25:31;;;;;;;18.00;13.40;;;;;;;11.19;96.22;101472.09;5052317;28;20119;-42
2023/06/17 01:28:01;;;;;;;20.02;13.80;;;;;;;11.24;96.51;101477.44;5052478;28;20037;-46
2023/06/17 01:30:30;;;;;;;20.30;13.63;;;;;;;11.20;96.26;101477.31;5051389;28;20033;-47
2023/06/17 01:32:59;;;;;;;21.00;13.77;;;;;;;11.14;96.25;101473.63;5052715;28;20151;-43
2023/06/17 01:35:31;;;;;;;20.58;14.82;;;;;;;11.21;94.94;101478.19;5052378;28;20021;-43
2023/06/17 01:38:09;;;;;;;17.38;13.98;;;;;;;11.18;95.28;101475.50;5051815;28;20024;-48
2023/06/17 01:40:35;;;;;;;19.42;13.30;;;;;;;11.10;95.12;101467.47;5052824;28;20050;-45
2023/06/17 01:43:02;;;;;;;20.65;14.88;;;;;;;11.03;95.97;101476.69;5056154;28;20150;-45
2023/06/17 01:45:29;;;;;;;20.45;13.68;;;;;;;11.14;95.34;101473.63;5055084;28;20414;-45
2023/06/17 01:47:55;;;;;;;20.65;13.70;;;;;;;11.11;94.96;101469.22;5056386;28;20107;-46
2023/06/17 01:50:20;;;;;;;19.25;13.63;;;;;;;11.12;94.86;101472.72;5056228;28;20104;-44
2023/06/17 01:52:46;;;;;;;19.70;14.95;;;;;;;11.12;94.99;101470.13;5055120;28;20032;-43
2023/06/17 01:55:12;;;;;;;18.77;13.93;;;;;;;11.07;94.63;101472.53;5055964;28;20385;-44
2023/06/17 01:57:37;;;;;;;18.58;14.80;;;;;;;11.08;94.96;101476.88;5055683;28;20037;-42
2023/06/17 02:00:04;;;;;;;20.50;14.90;;;;;;;11.10;94.71;101471.75;5055612;28;20028;-43
2023/06/17 02:02:29;;;;;;;19.23;13.88;;;;;;;11.02;95.07;101474.06;5055871;28;20029;-43
2023/06/17 02:04:55;;;;;;;20.00;13.50;;;;;;;10.82;96.02;101473.28;5055856;28;20036;-46
2023/06/17 02:07:25;;;;;;;20.33;14.73;;;;;;;10.78;96.35;101473.97;5055206;28;20467;-44
2023/06/17 02:09:51;;;;;;;18.27;14.30;;;;;;;10.65;97.45;101473.53;5055748;28;20427;-45
2023/06/17 02:12:16;;;;;;;16.60;14.02;;;;;;;10.62;97.46;101468.22;5055215;28;20033;-44
2023/06/17 02:14:42;;;;;;;18.00;14.40;;;;;;;10.48;98.03;101469.38;5055462;28;20033;-42
2023/06/17 02:17:11;;;;;;;17.75;15.02;;;;;;;10.53;98.14;101465.28;5055825;28;20060;-47
2023/06/17 02:19:37;;;;;;;20.90;15.50;;;;;;;10.43;98.54;101460.59;5054651;28;20029;-42
2023/06/17 02:22:04;;;;;;;21.58;16.35;;;;;;;10.38;98.74;101458.72;5055880;28;20025;-45
2023/06/17 02:24:29;;;;;;;22.15;16.35;;;;;;;10.39;99.31;101457.00;5055255;28;20028;-43
2023/06/17 02:26:55;;;;;;;19.63;14.65;;;;;;;10.29;99.66;101453.16;5054776;28;20091;-46
2023/06/17 02:29:20;;;;;;;19.98;16.00;;;;;;;10.33;100.00;101455.03;5055664;28;20029;-44
2023/06/17 02:31:45;;;;;;;25.98;16.52;;;;;;;10.30;100.00;101452.34;5055312;28;20064;-45
2023/06/17 02:34:11;;;;;;;19.55;15.40;;;;;;;10.37;100.00;101456.09;5054842;28;20025;-43
2023/06/17 02:36:39;;;;;;;21.45;15.35;;;;;;;10.40;100.00;101453.63;5055239;28;20029;-45
2023/06/17 02:39:05;;;;;;;19.77;15.15;;;;;;;10.35;100.00;101456.03;5055204;28;20412;-47
2023/06/17 02:41:31;;;;;;;17.48;14.77;;;;;;;10.39;99.82;101462.16;5054389;28;20033;-44
2023/06/17 02:43:56;;;;;;;20.65;15.95;;;;;;;10.31;99.82;101450.66;5055075;28;20070;-46
2023/06/17 02:46:24;;;;;;;22.20;16.42;;;;;;;10.21;100.00;101455.44;5055271;28;20040;-46
2023/06/17 02:48:49;;;;;;;25.15;17.45;;;;;;;10.21;100.00;101450.28;5054439;28;20025;-45
2023/06/17 02:51:15;;;;;;;23.42;17.08;;;;;;;10.21;100.00;101449.38;5054965;28;20035;-44
2023/06/17 02:53:41;;;;;;;24.20;17.52;;;;;;;10.19;100.00;101436.44;5054702;28;20033;-46
2023/06/17 02:56:06;;;;;;;18.73;16.08;;;;;;;10.26;100.00;101447.00;5054508;28;20059;-46
2023/06/17 02:58:31;;;;;;;21.45;17.02;;;;;;;10.27;100.00;101434.19;5054858;28;20028;-46
2023/06/17 03:00:57;;;;;;;19.20;16.00;;;;;;;10.16;100.00;101438.91;5054967;28;20392;-43
2023/06/17 03:03:33;;;;;;;22.10;17.05;;;;;;;10.07;100.00;101435.06;5053816;28;20036;-45
2023/06/17 03:06:01;;;;;;;23.48;17.05;;;;;;;10.10;100.00;101435.22;5054752;28;20033;-48
2023/06/17 03:08:28;;;;;;;23.05;18.15;;;;;;;10.08;100.00;101434.25;5054357;28;20073;-47
2023/06/17 03:10:53;;;;;;;23.13;17.30;;;;;;;10.08;100.00;101436.81;5054093;28;20025;-43
2023/06/17 03:13:18;;;;;;;21.40;16.90;;;;;;;10.01;100.00;101438.28;5054842;28;20387;-48
2023/06/17 03:15:44;;;;;;;22.85;17.52;;;;;;;10.02;100.00;101434.88;5053650;28;20112;-45
2023/06/17 03:18:09;;;;;;;21.17;16.15;;;;;;;9.97;100.00;101438.97;5054565;28;20461;-47
2023/06/17 03:20:35;;;;;;;19.15;16.60;;;;;;;9.87;100.00;101432.53;5054168;28;20112;-46
2023/06/17 03:23:02;;;;;;;19.95;16.65;;;;;;;9.81;100.00;101433.19;5053824;28;20484;-47
2023/06/17 03:25:27;;;;;;;21.40;17.52;;;;;;;9.87;100.00;101430.84;5054023;28;20029;-47
2023/06/17 03:27:53;;;;;;;24.20;17.50;;;;;;;9.90;100.00;101432.66;5054288;28;20028;-46
2023/06/17 03:30:18;;;;;;;23.25;18.00;;;;;;;9.97;100.00;101436.41;5053604;28;20029;-49
2023/06/17 03:32:44;;;;;;;26.13;18.58;;;;;;;9.97;100.00;101426.97;5054001;28;20021;-46
2023/06/17 03:35:10;;;;;;;22.83;18.05;;;;;;;10.01;100.00;101430.56;5054171;28;20029;-49
2023/06/17 03:37:35;;;;;;;23.77;17.80;;;;;;;10.02;100.00;101432.31;5053229;28;20031;-48
2023/06/17 03:40:00;;;;;;;25.90;18.25;;;;;;;9.99;100.00;101427.03;5054426;28;20056;-46
2023/06/17 03:42:25;;;;;;;21.63;18.23;;;;;;;9.97;100.00;101433.81;5053699;28;20037;-47
2023/06/17 03:44:51;;;;;;;20.83;17.60;;;;;;;9.93;100.00;101431.91;5053252;28;20531;-48
2023/06/17 03:47:16;;;;;;;24.45;18.98;;;;;;;9.80;100.00;101431.41;5054233;28;20025;-43
2023/06/17 03:49:42;;;;;;;25.98;17.98;;;;;;;9.86;100.00;101426.53;5053698;28;20181;-48
2023/06/17 03:52:08;;;;;;;25.20;19.52;;;;;;;9.84;100.00;101433.28;5053162;28;20021;-46
2023/06/17 03:54:33;;;;;;;24.05;19.20;;;;;;;9.82;100.00;101434.03;5053528;28;20079;-43
2023/06/17 03:56:58;;;;;;;23.15;19.00;;;;;;;9.83;100.00;101431.53;5053981;28;20029;-46
2023/06/17 03:59:23;;;;;;;21.80;19.45;;;;;;;9.79;100.00;101424.50;5052825;28;20021;-46
2023/06/17 04:01:49;;;;;;;21.73;18.48;;;;;;;9.83;100.00;101431.53;5053913;28;20025;-43
2023/06/17 04:04:14;;;;;;;22.67;19.10;;;;;;;9.87;100.00;101428.25;5053124;28;20372;-46
2023/06/17 04:06:40;;;;;;;28.70;20.88;;;;;;;9.86;100.00;101426.53;5052513;28;20078;-47
2023/06/17 04:09:05;;;;;;;26.35;20.52;;;;;;;9.92;100.00;101430.19;5053518;28;20040;-44
2023/06/17 04:11:32;;;;;;;26.25;19.25;;;;;;;9.95;100.00;101418.28;5053314;28;20079;-48
2023/06/17 04:13:58;;;;;;;27.85;20.73;;;;;;;9.96;100.00;101422.63;5052702;28;20366;-47
2023/06/17 04:16:23;;;;;;;23.50;19.80;;;;;;;10.05;100.00;101432.44;5053029;28;20021;-45
2023/06/17 04:18:48;;;;;;;24.83;20.33;;;;;;;10.10;100.00;101428.34;5053393;28;20116;-45
2023/06/17 04:21:14;;;;;;;27.58;20.67;;;;;;;10.07;100.00;101428.22;5052331;28;20107;-48
2023/06/17 04:23:39;;;;;;;28.58;19.88;;;;;;;10.17;100.00;101432.03;5052904;28;20029;-47
2023/06/17 04:26:05;;;;;;;26.00;20.33;;;;;;;10.21;100.00;101424.50;5052360;28;20111;-46
2023/06/17 04:28:31;;;;;;;32.03;19.85;;;;;;;10.29;100.00;101421.34;5053124;28;20028;-48
2023/06/17 04:31:00;;;;;;;24.47;20.30;;;;;;;10.41;100.00;101426.16;5053254;28;20435;-47
2023/06/17 04:33:26;;;;;;;25.65;19.45;;;;;;;10.52;100.00;101423.19;5052218;28;20029;-45
2023/06/17 04:35:51;;;;;;;27.45;20.60;;;;;;;10.65;100.00;101421.06;5053113;28;20032;-46
2023/06/17 04:38:17;;;;;;;27.42;20.10;;;;;;;10.79;100.00;101424.19;5053318;28;20044;-48
2023/06/17 04:40:42;;;;;;;27.90;19.85;;;;;;;10.89;100.00;101431.44;5052168;28;20432;-48
2023/06/17 04:43:08;;;;;;;28.17;21.70;;;;;;;11.06;100.00;101426.91;5053183;28;20033;-47
2023/06/17 04:45:35;;;;;;;27.73;18.67;;;;;;;11.18;100.00;101427.38;5052735;28;20033;-45
2023/06/17 04:48:05;;;;;;;25.42;18.65;;;;;;;11.28;100.00;101430.28;5052303;28;20028;-44
2023/06/17 04:50:31;;;;;;;25.27;20.58;;;;;;;11.36;100.00;101431.41;5052712;28;20029;-48
2023/06/17 04:53:03;;;;;;;26.35;21.02;;;;;;;11.50;100.00;101437.06;5053061;28;20032;-46
2023/06/17 04:55:29;;;;;;;30.50;21.38;;;;;;;11.64;100.00;101440.16;5052069;28;20025;-45
2023/06/17 04:57:54;;;;;;;29.23;22.48;;;;;;;11.75;100.00;101433.66;5052894;28;20079;-46
2023/06/17 05:00:19;;;;;;;29.50;22.45;;;;;;;11.89;100.00;101439.28;5052931;28;20025;-43
2023/06/17 05:02:45;;;;;;;27.65;23.38;;;;;;;12.00;100.00;101434.50;5051744;28;20392;-48
2023/06/17 05:05:10;;;;;;;31.83;26.92;;;;;;;12.17;100.00;101441.13;5052864;28;20388;-49
2023/06/17 05:07:36;;;;;;;33.85;26.67;;;;;;;12.29;100.00;101447.50;5052214;28;20029;-47
2023/06/17 05:10:01;;;;;;;36.58;27.90;;;;;;;12.47;100.00;101448.09;5052059;28;20029;-48
2023/06/17 05:12:27;;;;;;;31.75;26.73;;;;;;;12.50;100.00;101443.00;5052490;28;20025;-48
2023/06/17 05:14:52;;;;;;;37.60;26.88;;;;;;;12.63;100.00;101443.41;5052586;28;20025;-48
2023/06/17 05:17:18;;;;;;;36.42;27.52;;;;;;;12.73;100.00;101445.44;5055599;28;20029;-47
2023/06/17 05:19:43;;;;;;;34.90;27.80;;;;;;;12.81;100.00;101448.25;5056438;28;20025;-46
2023/06/17 05:22:08;;;;;;;37.58;28.50;;;;;;;12.99;100.00;101442.75;5056716;28;20095;-47
2023/06/17 05:24:33;;;;;;;41.58;27.90;;;;;;;13.12;100.00;101444.84;5055649;28;20121;-48
2023/06/17 05:26:59;;;;;;;40.30;30.30;;;;;;;13.30;100.00;101448.81;5056852;28;20017;-44
2023/06/17 05:29:24;;;;;;;38.15;29.92;;;;;;;13.48;100.00;101446.75;5055596;28;20435;-47
2023/06/17 05:31:49;;;;;;;35.72;29.25;;;;;;;13.56;100.00;101451.25;5056564;28;20024;-47
2023/06/17 05:34:15;;;;;;;38.92;29.35;;;;;;;13.69;100.00;101442.97;5056420;28;20087;-44
2023/06/17 05:36:40;;;;;;;38.97;30.60;;;;;;;13.82;100.00;101444.16;5055328;28;20025;-47
2023/06/17 05:39:05;;;;;;;36.75;29.95;;;;;;;13.89;100.00;101434.84;5056527;28;20029;-48
2023/06/17 05:41:31;;;;;;;35.85;29.63;;;;;;;13.98;100.00;101445.44;5056218;28;20115;-47
2023/06/17 05:43:56;;;;;;;39.20;30.85;;;;;;;14.07;100.00;101450.88;5055736;28;20039;-47
2023/06/17 05:46:21;;;;;;;40.60;30.50;;;;;;;14.20;99.95;101449.41;5056468;28;20082;-46
2023/06/17 05:48:46;;;;;;;37.03;30.08;;;;;;;14.33;99.09;101443.72;5055946;28;20025;-41
2023/06/17 05:51:12;;;;;;;42.78;29.13;;;;;;;14.50;97.75;101445.81;5055353;28;20029;-42
2023/06/17 05:53:37;;;;;;;41.08;29.30;;;;;;;14.61;97.01;101439.13;5055723;28;20032;-42
2023/06/17 05:56:02;;;;;;;41.25;30.80;;;;;;;14.70;97.74;101442.84;5056382;28;20064;-46
2023/06/17 05:58:28;;;;;;;39.50;30.85;;;;;;;14.82;97.38;101443.09;5055031;28;20033;-46
2023/06/17 06:00:53;;;;;;;45.50;31.30;;;;;;;14.95;96.22;101444.22;5056076;28;20028;-44
2023/06/17 06:03:18;;;;;;;47.03;30.90;;;;;;;15.08;95.48;101445.34;5055979;28;20392;-44
2023/06/17 06:05:43;;;;;;;41.78;30.40;;;;;;;15.23;94.57;101444.81;5055096;28;20043;-46
2023/06/17 06:08:09;;;;;;;36.50;29.27;;;;;;;15.28;93.60;101448.38;5056074;28;20380;-42
2023/06/17 06:10:34;;;;;;;39.63;29.80;;;;;;;15.41;92.83;101447.75;5055629;28;20021;-47
2023/06/17 06:13:00;;;;;;;36.13;30.15;;;;;;;15.56;92.88;101448.91;5055193;28;20469;-49
2023/06/17 06:15:25;;;;;;;39.15;29.33;;;;;;;15.70;91.58;101447.44;5055435;28;20116;-45
2023/06/17 06:17:51;;;;;;;38.80;31.17;;;;;;;15.83;91.35;101448.56;5055717;28;20032;-46
2023/06/17 06:20:17;;;;;;;43.58;32.45;;;;;;;15.95;90.16;101450.50;5054682;28;20268;-44
2023/06/17 06:22:42;;;;;;;45.45;33.90;;;;;;;16.08;91.23;101447.25;5055581;28;20033;-48
2023/06/17 06:25:08;;;;;;;45.60;34.75;;;;;;;16.22;90.96;101444.00;5055567;28;20029;-48
2023/06/17 06:27:33;;;;;;;44.35;32.78;;;;;;;16.37;91.60;101444.25;5054056;28;20048;-41
2023/06/17 06:29:58;;;;;;;48.78;34.30;;;;;;;16.53;89.90;101442.72;5055607;28;20485;-44
2023/06/17 06:32:23;;;;;;;49.67;34.15;;;;;;;16.65;89.36;101439.44;5055284;28;20025;-45
2023/06/17 06:34:49;;;;;;;46.22;33.75;;;;;;;16.86;88.79;101450.97;5054533;28;20029;-47
2023/06/17 06:37:15;;;;;;;51.13;33.97;;;;;;;16.96;87.61;101447.69;5055539;28;20025;-48
2023/06/17 06:39:40;;;;;;;46.38;34.47;;;;;;;17.08;87.17;101441.75;5054296;28;20394;-46
2023/06/17 06:42:06;;;;;;;49.13;35.25;;;;;;;17.11;85.58;101442.66;5055328;28;20021;-45
2023/06/17 06:44:31;;;;;;;55.38;36.30;;;;;;;17.30;87.41;101448.09;5054741;28;20068;-47
2023/06/17 06:46:56;;;;;;;47.28;32.30;;;;;;;17.46;85.42;101449.13;5054930;28;20032;-47
2023/06/17 06:49:22;;;;;;;44.13;29.63;;;;;;;17.62;81.64;101455.38;5055057;28;20381;-48
2023/06/17 06:51:48;;;;;;;47.28;30.75;;;;;;;17.63;80.54;101453.66;5055149;28;20071;-46
2023/06/17 06:54:13;;;;;;;40.90;30.35;;;;;;;17.77;81.78;101447.69;5054335;28;20025;-48
2023/06/17 06:56:38;;;;;;;48.50;28.85;;;;;;;17.88;78.60;101449.53;5054645;28;20032;-47
2023/06/17 06:59:04;;;;;;;51.25;30.38;;;;;;;17.99;79.09;101447.94;5054913;28;20368;-48
2023/06/17 07:01:30;;;;;;;45.05;29.30;;;;;;;18.09;78.60;101449.75;5053913;28;20025;-46
2023/06/17 07:03:55;;;;;;;49.00;29.67;;;;;;;18.25;75.96;101455.97;5054741;28;20029;-49
2023/06/17 07:06:20;;;;;;;46.47;29.60;;;;;;;18.29;75.39;101453.38;5054935;28;20021;-42
2023/06/17 07:08:46;;;;;;;44.97;27.33;;;;;;;18.36;75.08;101453.44;5053823;28;20083;-46
2023/06/17 07:11:11;;;;;;;45.72;25.02;;;;;;;18.55;72.85;101450.94;5054817;28;20120;-45
2023/06/17 07:13:36;;;;;;;37.13;23.77;;;;;;;18.71;70.29;101449.31;5054382;28;20082;-42
2023/06/17 07:16:02;;;;;;;34.47;23.40;;;;;;;18.80;68.74;101451.09;5053934;28;20031;-45
2023/06/17 07:18:27;;;;;;;32.80;21.38;;;;;;;18.88;65.95;101454.63;5054195;28;20044;-46
2023/06/17 07:20:53;;;;;;;31.02;20.38;;;;;;;19.11;67.26;101453.88;5054325;28;20041;-47
2023/06/17 07:23:18;;;;;;;35.13;20.55;;;;;;;19.23;65.92;101451.31;5053901;28;20070;-47
2023/06/17 07:25:44;;;;;;;34.80;19.77;;;;;;;19.32;63.14;101448.72;5054172;28;20063;-43
2023/06/17 07:28:09;;;;;;;34.08;21.02;;;;;;;19.42;62.79;101449.63;5054546;28;20024;-45
2023/06/17 07:30:34;;;;;;;35.33;19.42;;;;;;;19.49;61.28;101451.38;5053279;28;20067;-46
2023/06/17 07:33:00;;;;;;;24.90;17.23;;;;;;;19.63;58.35;101451.41;5054121;28;20033;-47
2023/06/17 07:35:25;;;;;;;27.60;18.13;;;;;;;19.67;59.50;101452.28;5054191;28;20067;-46
2023/06/17 07:37:51;;;;;;;27.05;16.90;;;;;;;19.64;56.53;101453.16;5053165;28;20446;-44
2023/06/17 07:40:17;;;;;;;26.80;17.77;;;;;;;19.92;56.24;101453.19;5053725;28;20431;-44
2023/06/17 07:42:42;;;;;;;29.60;18.27;;;;;;;19.98;59.07;101452.34;5054000;28;20461;-44
2023/06/17 07:45:08;;;;;;;32.72;17.90;;;;;;;20.15;61.93;101444.50;5053261;28;20064;-43
2023/06/17 07:47:34;;;;;;;27.10;18.13;;;;;;;20.16;54.95;101441.88;5053582;28;20054;-47
2023/06/17 07:49:59;;;;;;;31.77;16.20;;;;;;;20.37;56.83;101440.09;5053405;28;20099;-48
2023/06/17 07:52:24;;;;;;;26.35;16.27;;;;;;;20.49;53.56;101444.44;5053811;28;20491;-44
2023/06/17 07:54:51;;;;;;;28.30;15.93;;;;;;;20.54;53.33;101446.19;5054003;28;20032;-46
2023/06/17 07:57:16;;;;;;;29.58;15.63;;;;;;;20.62;52.92;101446.16;5053196;28;20082;-44
2023/06/17 07:59:42;;;;;;;22.95;14.45;;;;;;;20.72;49.59;101440.06;5053569;28;20037;-44
2023/06/17 08:02:07;;;;;;;22.35;13.80;;;;;;;20.89;48.65;101441.75;5053630;28;20029;-45
2023/06/17 08:04:33;;;;;;;26.88;14.43;;;;;;;20.93;47.45;101435.63;5052538;28;20029;-45
2023/06/17 08:06:58;;;;;;;20.35;12.95;;;;;;;20.99;46.34;101445.19;5053764;28;20040;-46
2023/06/17 08:09:23;;;;;;;27.27;13.55;;;;;;;21.05;47.04;101438.16;5053419;28;20021;-47
2023/06/17 08:11:48;;;;;;;21.60;12.90;;;;;;;21.17;46.54;101439.00;5052917;28;20379;-47
2023/06/17 08:14:15;;;;;;;20.60;11.75;;;;;;;21.34;44.47;101437.16;5053498;28;20021;-48
2023/06/17 08:16:40;;;;;;;20.23;11.95;;;;;;;21.22;43.41;101431.97;5053242;28;20048;-49
2023/06/17 08:19:06;;;;;;;23.27;13.50;;;;;;;21.29;43.63;101427.56;5052648;28;20377;-44
2023/06/17 08:21:31;;;;;;;21.02;12.70;;;;;;;21.43;43.08;101436.22;5052905;28;20565;-48
2023/06/17 08:23:56;;;;;;;21.95;14.50;;;;;;;21.57;43.59;101440.56;5053535;28;20124;-47
2023/06/17 08:26:21;;;;;;;19.90;11.70;;;;;;;21.68;43.01;101434.34;5052440;28;20049;-45
2023/06/17 08:28:48;;;;;;;17.90;11.60;;;;;;;21.93;44.77;101441.16;5053204;28;20299;-47
2023/06/17 08:31:13;;;;;;;23.50;11.70;;;;;;;21.98;41.86;101442.84;5053162;28;20104;-44
2023/06/17 08:33:38;;;;;;;21.02;11.88;;;;;;;22.12;43.70;101434.00;5052275;28;20453;-43
2023/06/17 08:36:04;;;;;;;19.70;10.82;;;;;;;22.16;40.37;101433.94;5053144;28;20052;-43
2023/06/17 08:38:29;;;;;;;18.67;11.05;;;;;;;22.14;38.63;101426.97;5053024;28;20435;-44
2023/06/17 08:40:54;;;;;;;24.00;11.63;;;;;;;22.19;40.25;101430.41;5052284;28;20053;-43
2023/06/17 08:43:20;;;;;;;21.90;12.45;;;;;;;22.22;40.50;101433.03;5053151;28;20785;-42
2023/06/17 08:45:48;;;;;;;18.80;11.57;;;;;;;22.49;41.31;101436.28;5052584;28;20366;-42
2023/06/17 08:48:14;;;;;;;19.48;11.02;;;;;;;22.71;40.96;101430.78;5052366;28;20146;-44
2023/06/17 08:50:41;;;;;;;20.42;11.25;;;;;;;22.89;39.85;101433.19;5052691;28;20059;-41
2023/06/17 08:53:07;;;;;;;17.70;10.88;;;;;;;22.99;41.99;101434.81;5052862;28;20017;-42
2023/06/17 08:55:34;;;;;;;20.23;11.80;;;;;;;23.29;40.86;101429.19;5051848;28;20072;-42
2023/06/17 08:58:00;;;;;;;19.10;11.55;;;;;;;23.39;40.54;101429.94;5052853;28;20142;-46
2023/06/17 09:00:25;;;;;;;20.30;11.35;;;;;;;23.56;39.63;101427.91;5051674;28;20029;-44
2023/06/17 09:02:52;;;;;;;17.38;10.85;;;;;;;23.71;41.04;101425.97;5052883;28;20024;-45
2023/06/17 09:05:18;;;;;;;18.27;10.07;;;;;;;23.75;38.27;101425.88;5052594;28;20419;-43
2023/06/17 09:07:43;;;;;;;16.98;11.25;;;;;;;23.81;38.31;101424.91;5051781;28;20028;-45
2023/06/17 09:10:09;;;;;;;20.33;10.80;;;;;;;23.94;37.90;101425.63;5052903;28;20021;-43
2023/06/17 09:12:38;;;;;;;18.77;11.30;;;;;;;23.91;36.41;101431.81;5052320;28;20018;-44
2023/06/17 09:15:13;;;;;;;18.20;10.60;;;;;;;24.15;36.75;101427.00;5051840;28;20072;-47
2023/06/17 09:17:39;;;;;;;19.90;10.57;;;;;;;24.38;37.95;101420.44;5052501;28;20147;-42
2023/06/17 09:20:15;;;;;;;20.27;10.25;;;;;;;24.36;36.30;101422.22;5052602;28;20064;-41
2023/06/17 09:22:41;;;;;;;18.33;11.02;;;;;;;24.49;36.34;101421.09;5051444;28;20055;-42
2023/06/17 09:25:11;;;;;;;20.98;10.52;;;;;;;24.59;35.35;101433.19;5052579;28;20036;-42
2023/06/17 09:27:44;;;;;;;22.50;10.55;;;;;;;24.80;35.40;101433.69;5052266;28;20028;-44
2023/06/17 09:30:10;;;;;;;20.15;10.00;;;;;;;24.99;34.22;101431.53;5052133;28;20045;-41
2023/06/17 09:32:40;;;;;;;16.38;9.30;;;;;;;25.26;34.81;101430.06;5052400;28;20511;-43
2023/06/17 09:35:15;;;;;;;21.58;9.02;;;;;;;25.56;35.93;101427.63;5052664;28;20017;-42
2023/06/17 09:37:48;;;;;;;19.02;10.60;;;;;;;25.55;33.44;101431.19;5051509;28;20051;-43
2023/06/17 09:40:14;;;;;;;18.45;9.07;;;;;;;25.76;32.62;101421.03;5052344;28;20154;-45
2023/06/17 09:42:42;;;;;;;14.13;9.07;;;;;;;25.75;32.95;101427.22;5051610;28;20064;-44
2023/06/17 09:45:11;;;;;;;15.88;8.75;;;;;;;26.26;33.03;101421.50;5052218;28;20477;-42
2023/06/17 09:47:37;;;;;;;16.48;9.43;;;;;;;26.06;31.37;101431.75;5052129;28;20076;-42
2023/06/17 09:50:11;;;;;;;16.77;9.23;;;;;;;26.31;31.96;101420.53;5051554;28;20017;-47
2023/06/17 09:52:38;;;;;;;15.13;9.13;;;;;;;26.70;30.00;101429.13;5052272;28;20037;-43
2023/06/17 09:55:04;;;;;;;13.02;8.27;;;;;;;27.27;30.22;101427.44;5052544;28;20031;-42
2023/06/17 09:57:34;;;;;;;16.88;9.02;;;;;;;26.68;30.43;101423.00;5051394;28;20107;-44
2023/06/17 10:00:00;;;;;;;16.52;9.57;;;;;;;26.56;30.41;101425.97;5052354;28;20051;-43
2023/06/17 10:02:27;;;;;;;21.80;9.65;;;;;;;26.39;29.98;101424.69;5053772;28;20419;-46
2023/06/17 10:04:53;;;;;;;16.98;8.13;;;;;;;27.53;30.02;101419.63;5055008;28;20032;-46
2023/06/17 10:07:22;;;;;;;23.60;8.52;;;;;;;27.92;29.98;101420.06;5055791;28;20354;-42
2023/06/17 10:09:48;;;;;;;23.83;9.30;;;;;;;28.04;28.03;101416.16;5056006;28;20032;-43
2023/06/17 10:12:14;;;;;;;15.45;7.78;;;;;;;28.25;27.35;101411.88;5055202;28;20043;-43
2023/06/17 10:14:41;;;;;;;17.52;8.23;;;;;;;28.65;27.29;101414.88;5055379;28;20033;-43
2023/06/17 10:17:11;;;;;;;25.05;7.95;;;;;;;29.92;26.90;101417.88;5055830;28;20033;-43
2023/06/17 10:19:39;;;;;;;15.52;8.52;;;;;;;29.49;27.08;101415.19;5054306;28;20119;-45
2023/06/17 10:22:09;;;;;;;13.38;8.30;;;;;;;29.69;25.68;101413.50;5055806;28;20527;-47
2023/06/17 10:24:35;;;;;;;14.13;7.57;;;;;;;30.90;25.70;101408.22;5055161;28;20033;-42
2023/06/17 10:27:06;;;;;;;15.30;8.23;;;;;;;32.09;24.40;101416.59;5055002;28;20024;-43
2023/06/17 10:29:35;;;;;;;15.07;7.65;;;;;;;32.63;24.29;101410.22;5055046;28;20108;-47
2023/06/17 10:32:19;;;;;;;13.55;7.45;;;;;;;33.22;23.67;101409.66;5054436;28;20025;-43
2023/06/17 10:35:04;;;;;;;15.25;8.55;;;;;;;33.46;22.86;101405.59;5054998;28;20493;-42
2023/06/17 10:37:30;;;;;;;17.67;8.23;;;;;;;34.28;21.64;101394.50;5050891;28;20087;-43
2023/06/17 10:39:55;;;;;;;13.10;7.37;;;;;;;34.83;20.81;101405.38;5054588;28;20017;-43
2023/06/17 10:42:24;;;;;;;14.23;7.43;;;;;;;34.94;20.08;101414.47;5055244;28;20060;-42
2023/06/17 10:44:50;;;;;;;13.57;7.07;;;;;;;34.85;18.22;101401.69;5054976;28;20021;-43
2023/06/17 10:47:20;;;;;;;16.23;7.23;;;;;;;34.61;19.36;101402.25;5054581;28;20083;-43
2023/06/17 10:49:48;;;;;;;13.02;7.28;;;;;;;35.65;19.73;101398.22;5054949;28;20040;-44
2023/06/17 10:52:15;;;;;;;14.38;7.63;;;;;;;35.48;18.40;101395.81;5055019;28;20417;-45
2023/06/17 10:54:45;;;;;;;13.55;6.63;;;;;;;36.08;19.22;101397.94;5054139;28;20079;-44
2023/06/17 10:57:11;;;;;;;11.02;6.20;;;;;;;35.04;18.60;101393.31;5054806;28;20037;-45
2023/06/17 10:59:36;;;;;;;14.63;6.90;;;;;;;34.77;19.16;101388.75;5054785;28;20036;-46
2023/06/17 11:02:08;;;;;;;12.10;7.70;;;;;;;34.62;19.38;101397.75;5053959;28;20074;-48
2023/06/17 11:04:35;;;;;;;15.45;7.57;;;;;;;35.00;19.15;101389.09;5054489;28;20020;-47
2023/06/17 11:07:02;;;;;;;13.77;7.18;;;;;;;35.56;18.93;101388.09;5054054;28;20025;-44